sensor_id;sensor_type;location;lat;lon;timestamp;P1;durP1;ratioP1;P2;durP2;ratioP2
69719;SDS011;56988;56.122;13.798;2024-02-26T00:00:50;58.53;;;26.67;;
69719;SDS011;56988;56.122;13.798;2024-02-26T00:01:50;77.33;;;27.10;;
69719;SDS011;56988;56.122;13.798;2024-02-26T00:02:50;80.73;;;28.90;;
69719;SDS011;56988;56.122;13.798;2024-02-26T00:03:50;124.93;;;30.43;;
69719;SDS011;56988;56.122;13.798;2024-02-26T00:04:52;76.40;;;27.60;;
69719;SDS011;56988;56.122;13.798;2024-02-26T00:05:52;68.23;;;27.87;;
69719;SDS011;56988;56.122;13.798;2024-02-26T00:06:52;81.20;;;27.87;;
69719;SDS011;56988;56.122;13.798;2024-02-26T00:07:54;72.43;;;27.80;;
69719;SDS011;56988;56.122;13.798;2024-02-26T00:08:54;64.13;;;27.40;;
69719;SDS011;56988;56.122;13.798;2024-02-26T00:09:54;68.97;;;26.43;;
69719;SDS011;56988;56.122;13.798;2024-02-26T00:10:55;56.93;;;26.90;;
69719;SDS011;56988;56.122;13.798;2024-02-26T00:11:55;55.00;;;25.98;;
69719;SDS011;56988;56.122;13.798;2024-02-26T00:12:55;59.95;;;25.85;;
69719;SDS011;56988;56.122;13.798;2024-02-26T00:13:55;52.78;;;24.10;;
69719;SDS011;56988;56.122;13.798;2024-02-26T00:14:56;59.50;;;26.75;;
69719;SDS011;56988;56.122;13.798;2024-02-26T00:15:58;63.13;;;27.13;;
69719;SDS011;56988;56.122;13.798;2024-02-26T00:16:58;60.13;;;25.90;;
69719;SDS011;56988;56.122;13.798;2024-02-26T00:17:58;63.20;;;27.47;;
69719;SDS011;56988;56.122;13.798;2024-02-26T00:18:58;53.70;;;25.07;;
69719;SDS011;56988;56.122;13.798;2024-02-26T00:19:58;49.80;;;23.85;;
69719;SDS011;56988;56.122;13.798;2024-02-26T00:21:01;52.70;;;24.80;;
69719;SDS011;56988;56.122;13.798;2024-02-26T00:22:02;56.72;;;25.45;;
69719;SDS011;56988;56.122;13.798;2024-02-26T00:23:02;58.23;;;24.73;;
69719;SDS011;56988;56.122;13.798;2024-02-26T00:24:02;52.13;;;25.05;;
69719;SDS011;56988;56.122;13.798;2024-02-26T00:25:03;56.15;;;26.35;;
69719;SDS011;56988;56.122;13.798;2024-02-26T00:26:04;51.88;;;25.02;;
69719;SDS011;56988;56.122;13.798;2024-02-26T00:27:04;56.47;;;25.70;;
69719;SDS011;56988;56.122;13.798;2024-02-26T00:28:04;51.45;;;24.23;;
69719;SDS011;56988;56.122;13.798;2024-02-26T00:29:05;51.42;;;24.88;;
69719;SDS011;56988;56.122;13.798;2024-02-26T00:30:05;52.88;;;24.55;;
69719;SDS011;56988;56.122;13.798;2024-02-26T00:32:06;54.40;;;22.73;;
69719;SDS011;56988;56.122;13.798;2024-02-26T00:33:06;50.78;;;23.45;;
69719;SDS011;56988;56.122;13.798;2024-02-26T00:34:07;51.67;;;25.20;;
69719;SDS011;56988;56.122;13.798;2024-02-26T00:35:07;50.60;;;24.43;;
69719;SDS011;56988;56.122;13.798;2024-02-26T00:36:09;54.38;;;23.60;;
69719;SDS011;56988;56.122;13.798;2024-02-26T00:37:09;53.30;;;24.20;;
69719;SDS011;56988;56.122;13.798;2024-02-26T00:38:09;52.67;;;24.80;;
69719;SDS011;56988;56.122;13.798;2024-02-26T00:39:11;50.27;;;23.23;;
69719;SDS011;56988;56.122;13.798;2024-02-26T00:40:11;56.92;;;25.30;;
69719;SDS011;56988;56.122;13.798;2024-02-26T00:41:11;57.75;;;24.30;;
69719;SDS011;56988;56.122;13.798;2024-02-26T00:42:12;61.53;;;24.70;;
69719;SDS011;56988;56.122;13.798;2024-02-26T00:43:12;54.53;;;25.43;;
69719;SDS011;56988;56.122;13.798;2024-02-26T00:44:12;53.88;;;24.30;;
69719;SDS011;56988;56.122;13.798;2024-02-26T00:45:13;59.40;;;24.83;;
69719;SDS011;56988;56.122;13.798;2024-02-26T00:46:13;54.28;;;24.13;;
69719;SDS011;56988;56.122;13.798;2024-02-26T00:47:13;46.27;;;23.33;;
69719;SDS011;56988;56.122;13.798;2024-02-26T00:48:13;49.95;;;24.15;;
69719;SDS011;56988;56.122;13.798;2024-02-26T00:49:14;51.40;;;24.10;;
69719;SDS011;56988;56.122;13.798;2024-02-26T00:50:14;50.30;;;24.03;;
69719;SDS011;56988;56.122;13.798;2024-02-26T00:51:14;53.65;;;23.73;;
69719;SDS011;56988;56.122;13.798;2024-02-26T00:52:15;58.40;;;25.52;;
69719;SDS011;56988;56.122;13.798;2024-02-26T00:53:15;58.07;;;23.70;;
69719;SDS011;56988;56.122;13.798;2024-02-26T00:54:15;51.97;;;24.87;;
69719;SDS011;56988;56.122;13.798;2024-02-26T00:55:16;53.10;;;24.45;;
69719;SDS011;56988;56.122;13.798;2024-02-26T00:56:16;49.58;;;23.23;;
69719;SDS011;56988;56.122;13.798;2024-02-26T00:57:16;52.83;;;25.10;;
69719;SDS011;56988;56.122;13.798;2024-02-26T00:58:16;56.20;;;24.97;;
69719;SDS011;56988;56.122;13.798;2024-02-26T00:59:17;58.30;;;25.50;;
69719;SDS011;56988;56.122;13.798;2024-02-26T01:00:17;52.30;;;25.27;;
69719;SDS011;56988;56.122;13.798;2024-02-26T01:01:17;50.17;;;24.50;;
69719;SDS011;56988;56.122;13.798;2024-02-26T01:02:18;55.05;;;24.58;;
69719;SDS011;56988;56.122;13.798;2024-02-26T01:03:18;52.88;;;24.23;;
69719;SDS011;56988;56.122;13.798;2024-02-26T01:04:18;55.85;;;24.65;;
69719;SDS011;56988;56.122;13.798;2024-02-26T01:05:18;67.60;;;25.63;;
69719;SDS011;56988;56.122;13.798;2024-02-26T01:06:18;52.77;;;26.27;;
69719;SDS011;56988;56.122;13.798;2024-02-26T01:07:19;58.47;;;25.03;;
69719;SDS011;56988;56.122;13.798;2024-02-26T01:08:19;58.67;;;24.67;;
69719;SDS011;56988;56.122;13.798;2024-02-26T01:09:19;49.55;;;23.98;;
69719;SDS011;56988;56.122;13.798;2024-02-26T01:10:19;55.28;;;24.67;;
69719;SDS011;56988;56.122;13.798;2024-02-26T01:11:19;61.90;;;25.97;;
69719;SDS011;56988;56.122;13.798;2024-02-26T01:12:20;58.60;;;23.90;;
69719;SDS011;56988;56.122;13.798;2024-02-26T01:13:20;56.53;;;26.53;;
69719;SDS011;56988;56.122;13.798;2024-02-26T01:14:20;61.60;;;26.35;;
69719;SDS011;56988;56.122;13.798;2024-02-26T01:15:20;62.17;;;28.07;;
69719;SDS011;56988;56.122;13.798;2024-02-26T01:16:23;55.65;;;24.83;;
69719;SDS011;56988;56.122;13.798;2024-02-26T01:17:24;55.22;;;26.60;;
69719;SDS011;56988;56.122;13.798;2024-02-26T01:18:24;61.23;;;24.77;;
69719;SDS011;56988;56.122;13.798;2024-02-26T01:19:24;86.05;;;27.50;;
69719;SDS011;56988;56.122;13.798;2024-02-26T01:20:24;68.07;;;26.30;;
69719;SDS011;56988;56.122;13.798;2024-02-26T01:21:25;60.50;;;26.93;;
69719;SDS011;56988;56.122;13.798;2024-02-26T01:22:26;69.85;;;27.08;;
69719;SDS011;56988;56.122;13.798;2024-02-26T01:23:27;59.30;;;25.33;;
69719;SDS011;56988;56.122;13.798;2024-02-26T01:24:27;60.60;;;26.48;;
69719;SDS011;56988;56.122;13.798;2024-02-26T01:25:27;63.92;;;26.80;;
69719;SDS011;56988;56.122;13.798;2024-02-26T01:26:27;79.47;;;26.40;;
69719;SDS011;56988;56.122;13.798;2024-02-26T01:27:28;68.47;;;27.67;;
69719;SDS011;56988;56.122;13.798;2024-02-26T01:28:28;63.22;;;26.55;;
69719;SDS011;56988;56.122;13.798;2024-02-26T01:29:28;80.40;;;27.50;;
69719;SDS011;56988;56.122;13.798;2024-02-26T01:30:28;62.63;;;25.93;;
69719;SDS011;56988;56.122;13.798;2024-02-26T01:31:29;54.67;;;25.03;;
69719;SDS011;56988;56.122;13.798;2024-02-26T01:32:29;58.15;;;25.75;;
69719;SDS011;56988;56.122;13.798;2024-02-26T01:33:29;71.25;;;26.85;;
69719;SDS011;56988;56.122;13.798;2024-02-26T01:34:29;99.57;;;27.57;;
69719;SDS011;56988;56.122;13.798;2024-02-26T01:35:30;58.10;;;25.97;;
69719;SDS011;56988;56.122;13.798;2024-02-26T01:36:30;57.40;;;25.37;;
69719;SDS011;56988;56.122;13.798;2024-02-26T01:37:30;53.88;;;25.23;;
69719;SDS011;56988;56.122;13.798;2024-02-26T01:38:30;52.03;;;23.60;;
69719;SDS011;56988;56.122;13.798;2024-02-26T01:39:31;83.43;;;26.33;;
69719;SDS011;56988;56.122;13.798;2024-02-26T01:40:31;86.95;;;27.30;;
69719;SDS011;56988;56.122;13.798;2024-02-26T01:41:31;66.45;;;25.63;;
69719;SDS011;56988;56.122;13.798;2024-02-26T01:42:31;55.47;;;24.83;;
69719;SDS011;56988;56.122;13.798;2024-02-26T01:43:32;61.42;;;25.55;;
69719;SDS011;56988;56.122;13.798;2024-02-26T01:44:33;57.55;;;24.83;;
69719;SDS011;56988;56.122;13.798;2024-02-26T01:45:33;55.50;;;24.73;;
69719;SDS011;56988;56.122;13.798;2024-02-26T01:46:34;64.32;;;26.60;;
69719;SDS011;56988;56.122;13.798;2024-02-26T01:47:34;66.03;;;25.38;;
69719;SDS011;56988;56.122;13.798;2024-02-26T01:48:34;63.20;;;25.20;;
69719;SDS011;56988;56.122;13.798;2024-02-26T01:49:35;172.63;;;31.30;;
69719;SDS011;56988;56.122;13.798;2024-02-26T01:50:35;77.45;;;26.77;;
69719;SDS011;56988;56.122;13.798;2024-02-26T01:51:37;53.78;;;25.60;;
69719;SDS011;56988;56.122;13.798;2024-02-26T01:52:38;61.13;;;25.52;;
69719;SDS011;56988;56.122;13.798;2024-02-26T01:53:38;52.67;;;24.50;;
69719;SDS011;56988;56.122;13.798;2024-02-26T01:54:39;64.45;;;26.30;;
69719;SDS011;56988;56.122;13.798;2024-02-26T01:55:40;63.72;;;26.10;;
69719;SDS011;56988;56.122;13.798;2024-02-26T01:56:40;73.30;;;26.00;;
69719;SDS011;56988;56.122;13.798;2024-02-26T01:57:42;60.35;;;24.48;;
69719;SDS011;56988;56.122;13.798;2024-02-26T01:58:42;48.30;;;23.10;;
69719;SDS011;56988;56.122;13.798;2024-02-26T01:59:43;57.13;;;25.38;;
69719;SDS011;56988;56.122;13.798;2024-02-26T02:00:43;54.60;;;24.83;;
69719;SDS011;56988;56.122;13.798;2024-02-26T02:01:44;59.43;;;25.43;;
69719;SDS011;56988;56.122;13.798;2024-02-26T02:02:45;104.78;;;26.45;;
69719;SDS011;56988;56.122;13.798;2024-02-26T02:03:48;53.22;;;24.35;;
69719;SDS011;56988;56.122;13.798;2024-02-26T02:04:48;56.17;;;25.35;;
69719;SDS011;56988;56.122;13.798;2024-02-26T02:05:49;47.50;;;24.27;;
69719;SDS011;56988;56.122;13.798;2024-02-26T02:06:49;55.25;;;25.45;;
69719;SDS011;56988;56.122;13.798;2024-02-26T02:07:49;88.20;;;26.55;;
69719;SDS011;56988;56.122;13.798;2024-02-26T02:08:51;71.00;;;24.63;;
69719;SDS011;56988;56.122;13.798;2024-02-26T02:09:52;107.10;;;25.20;;
69719;SDS011;56988;56.122;13.798;2024-02-26T02:11:53;122.53;;;26.17;;
69719;SDS011;56988;56.122;13.798;2024-02-26T02:12:53;61.80;;;23.75;;
69719;SDS011;56988;56.122;13.798;2024-02-26T02:13:54;65.85;;;24.88;;
69719;SDS011;56988;56.122;13.798;2024-02-26T02:14:54;118.43;;;25.40;;
69719;SDS011;56988;56.122;13.798;2024-02-26T02:15:55;72.68;;;24.80;;
69719;SDS011;56988;56.122;13.798;2024-02-26T02:16:55;109.20;;;25.50;;
69719;SDS011;56988;56.122;13.798;2024-02-26T02:17:55;108.60;;;26.57;;
69719;SDS011;56988;56.122;13.798;2024-02-26T02:18:55;149.43;;;27.50;;
69719;SDS011;56988;56.122;13.798;2024-02-26T02:19:56;96.47;;;26.53;;
69719;SDS011;56988;56.122;13.798;2024-02-26T02:20:56;131.73;;;27.35;;
69719;SDS011;56988;56.122;13.798;2024-02-26T02:21:59;119.65;;;25.95;;
69719;SDS011;56988;56.122;13.798;2024-02-26T02:22:59;119.70;;;26.37;;
69719;SDS011;56988;56.122;13.798;2024-02-26T02:24:00;203.13;;;28.08;;
69719;SDS011;56988;56.122;13.798;2024-02-26T02:25:00;169.83;;;27.43;;
69719;SDS011;56988;56.122;13.798;2024-02-26T02:26:00;54.23;;;23.83;;
69719;SDS011;56988;56.122;13.798;2024-02-26T02:27:00;64.32;;;25.45;;
69719;SDS011;56988;56.122;13.798;2024-02-26T02:28:01;153.20;;;27.17;;
69719;SDS011;56988;56.122;13.798;2024-02-26T02:29:02;185.68;;;26.95;;
69719;SDS011;56988;56.122;13.798;2024-02-26T02:30:02;167.82;;;27.42;;
69719;SDS011;56988;56.122;13.798;2024-02-26T02:31:03;167.00;;;26.95;;
69719;SDS011;56988;56.122;13.798;2024-02-26T02:32:03;197.20;;;27.77;;
69719;SDS011;56988;56.122;13.798;2024-02-26T02:33:04;175.00;;;28.52;;
69719;SDS011;56988;56.122;13.798;2024-02-26T02:34:05;244.50;;;31.98;;
69719;SDS011;56988;56.122;13.798;2024-02-26T02:35:05;230.48;;;28.55;;
69719;SDS011;56988;56.122;13.798;2024-02-26T02:36:05;216.77;;;28.60;;
69719;SDS011;56988;56.122;13.798;2024-02-26T02:37:09;172.25;;;27.20;;
69719;SDS011;56988;56.122;13.798;2024-02-26T02:38:10;82.33;;;25.10;;
69719;SDS011;56988;56.122;13.798;2024-02-26T02:39:10;159.00;;;27.17;;
69719;SDS011;56988;56.122;13.798;2024-02-26T02:40:10;73.77;;;25.43;;
69719;SDS011;56988;56.122;13.798;2024-02-26T02:41:10;176.48;;;27.42;;
69719;SDS011;56988;56.122;13.798;2024-02-26T02:42:11;268.17;;;28.30;;
69719;SDS011;56988;56.122;13.798;2024-02-26T02:43:12;91.13;;;24.30;;
69719;SDS011;56988;56.122;13.798;2024-02-26T02:44:12;145.03;;;25.57;;
69719;SDS011;56988;56.122;13.798;2024-02-26T02:45:12;187.48;;;26.55;;
69719;SDS011;56988;56.122;13.798;2024-02-26T02:46:12;180.23;;;27.17;;
69719;SDS011;56988;56.122;13.798;2024-02-26T02:47:13;173.13;;;27.40;;
69719;SDS011;56988;56.122;13.798;2024-02-26T02:48:13;154.00;;;27.05;;
69719;SDS011;56988;56.122;13.798;2024-02-26T02:49:13;146.43;;;26.93;;
69719;SDS011;56988;56.122;13.798;2024-02-26T02:50:14;231.38;;;28.70;;
69719;SDS011;56988;56.122;13.798;2024-02-26T02:51:14;207.07;;;28.35;;
69719;SDS011;56988;56.122;13.798;2024-02-26T02:52:14;188.73;;;27.45;;
69719;SDS011;56988;56.122;13.798;2024-02-26T02:53:15;139.80;;;25.38;;
69719;SDS011;56988;56.122;13.798;2024-02-26T02:54:16;118.22;;;25.00;;
69719;SDS011;56988;56.122;13.798;2024-02-26T02:55:18;188.23;;;29.07;;
69719;SDS011;56988;56.122;13.798;2024-02-26T02:56:18;92.18;;;24.17;;
69719;SDS011;56988;56.122;13.798;2024-02-26T02:57:18;188.65;;;26.55;;
69719;SDS011;56988;56.122;13.798;2024-02-26T02:58:18;132.15;;;24.25;;
69719;SDS011;56988;56.122;13.798;2024-02-26T02:59:18;117.17;;;24.77;;
69719;SDS011;56988;56.122;13.798;2024-02-26T03:00:19;156.07;;;27.07;;
69719;SDS011;56988;56.122;13.798;2024-02-26T03:01:19;119.85;;;25.60;;
69719;SDS011;56988;56.122;13.798;2024-02-26T03:02:19;91.93;;;24.97;;
69719;SDS011;56988;56.122;13.798;2024-02-26T03:03:19;104.88;;;24.83;;
69719;SDS011;56988;56.122;13.798;2024-02-26T03:04:20;274.52;;;30.33;;
69719;SDS011;56988;56.122;13.798;2024-02-26T03:05:20;292.50;;;30.70;;
69719;SDS011;56988;56.122;13.798;2024-02-26T03:06:20;207.13;;;28.35;;
69719;SDS011;56988;56.122;13.798;2024-02-26T03:07:21;275.63;;;29.45;;
69719;SDS011;56988;56.122;13.798;2024-02-26T03:08:21;252.43;;;30.33;;
69719;SDS011;56988;56.122;13.798;2024-02-26T03:09:21;245.95;;;31.58;;
69719;SDS011;56988;56.122;13.798;2024-02-26T03:10:21;322.92;;;33.10;;
69719;SDS011;56988;56.122;13.798;2024-02-26T03:11:22;134.75;;;26.98;;
69719;SDS011;56988;56.122;13.798;2024-02-26T03:12:22;156.38;;;26.38;;
69719;SDS011;56988;56.122;13.798;2024-02-26T03:13:22;175.05;;;27.55;;
69719;SDS011;56988;56.122;13.798;2024-02-26T03:14:22;155.30;;;28.10;;
69719;SDS011;56988;56.122;13.798;2024-02-26T03:15:23;301.55;;;34.10;;
69719;SDS011;56988;56.122;13.798;2024-02-26T03:16:23;115.30;;;27.43;;
69719;SDS011;56988;56.122;13.798;2024-02-26T03:17:23;115.38;;;27.83;;
69719;SDS011;56988;56.122;13.798;2024-02-26T03:18:26;124.22;;;29.08;;
69719;SDS011;56988;56.122;13.798;2024-02-26T03:19:26;231.07;;;30.50;;
69719;SDS011;56988;56.122;13.798;2024-02-26T03:20:27;143.10;;;28.40;;
69719;SDS011;56988;56.122;13.798;2024-02-26T03:21:27;164.53;;;25.97;;
69719;SDS011;56988;56.122;13.798;2024-02-26T03:22:27;282.02;;;31.92;;
69719;SDS011;56988;56.122;13.798;2024-02-26T03:23:27;321.03;;;33.73;;
69719;SDS011;56988;56.122;13.798;2024-02-26T03:24:27;312.03;;;32.77;;
69719;SDS011;56988;56.122;13.798;2024-02-26T03:25:28;107.97;;;26.25;;
69719;SDS011;56988;56.122;13.798;2024-02-26T03:26:28;238.82;;;30.70;;
69719;SDS011;56988;56.122;13.798;2024-02-26T03:27:28;256.73;;;29.00;;
69719;SDS011;56988;56.122;13.798;2024-02-26T03:28:28;364.63;;;34.72;;
69719;SDS011;56988;56.122;13.798;2024-02-26T03:29:29;219.63;;;28.35;;
69719;SDS011;56988;56.122;13.798;2024-02-26T03:30:29;360.83;;;36.50;;
69719;SDS011;56988;56.122;13.798;2024-02-26T03:31:29;198.75;;;28.50;;
69719;SDS011;56988;56.122;13.798;2024-02-26T03:32:29;259.55;;;30.50;;
69719;SDS011;56988;56.122;13.798;2024-02-26T03:33:30;81.77;;;23.73;;
69719;SDS011;56988;56.122;13.798;2024-02-26T03:34:30;223.33;;;28.53;;
69719;SDS011;56988;56.122;13.798;2024-02-26T03:35:30;286.25;;;29.50;;
69719;SDS011;56988;56.122;13.798;2024-02-26T03:36:31;178.98;;;28.55;;
69719;SDS011;56988;56.122;13.798;2024-02-26T03:37:31;262.07;;;31.80;;
69719;SDS011;56988;56.122;13.798;2024-02-26T03:38:31;181.53;;;26.33;;
69719;SDS011;56988;56.122;13.798;2024-02-26T03:39:31;180.67;;;25.87;;
69719;SDS011;56988;56.122;13.798;2024-02-26T03:40:32;200.63;;;26.45;;
69719;SDS011;56988;56.122;13.798;2024-02-26T03:41:35;188.40;;;24.88;;
69719;SDS011;56988;56.122;13.798;2024-02-26T03:42:35;181.80;;;26.95;;
69719;SDS011;56988;56.122;13.798;2024-02-26T03:43:35;223.77;;;28.57;;
69719;SDS011;56988;56.122;13.798;2024-02-26T03:44:36;179.83;;;25.87;;
69719;SDS011;56988;56.122;13.798;2024-02-26T03:45:36;188.45;;;27.10;;
69719;SDS011;56988;56.122;13.798;2024-02-26T03:46:36;204.63;;;27.05;;
69719;SDS011;56988;56.122;13.798;2024-02-26T03:47:39;253.73;;;26.65;;
69719;SDS011;56988;56.122;13.798;2024-02-26T03:48:42;172.18;;;27.48;;
69719;SDS011;56988;56.122;13.798;2024-02-26T03:49:43;262.02;;;28.70;;
69719;SDS011;56988;56.122;13.798;2024-02-26T03:50:43;245.30;;;28.53;;
69719;SDS011;56988;56.122;13.798;2024-02-26T03:51:43;182.00;;;24.60;;
69719;SDS011;56988;56.122;13.798;2024-02-26T03:52:43;136.10;;;24.67;;
69719;SDS011;56988;56.122;13.798;2024-02-26T03:53:43;215.18;;;27.67;;
69719;SDS011;56988;56.122;13.798;2024-02-26T03:54:44;197.40;;;26.97;;
69719;SDS011;56988;56.122;13.798;2024-02-26T03:55:44;120.40;;;23.63;;
69719;SDS011;56988;56.122;13.798;2024-02-26T03:56:44;153.27;;;24.23;;
69719;SDS011;56988;56.122;13.798;2024-02-26T03:57:44;198.70;;;25.00;;
69719;SDS011;56988;56.122;13.798;2024-02-26T03:58:44;161.63;;;23.93;;
69719;SDS011;56988;56.122;13.798;2024-02-26T03:59:45;158.17;;;24.00;;
69719;SDS011;56988;56.122;13.798;2024-02-26T04:00:45;73.40;;;21.35;;
69719;SDS011;56988;56.122;13.798;2024-02-26T04:01:47;170.82;;;24.27;;
69719;SDS011;56988;56.122;13.798;2024-02-26T04:02:47;205.63;;;24.20;;
69719;SDS011;56988;56.122;13.798;2024-02-26T04:03:48;219.77;;;25.55;;
69719;SDS011;56988;56.122;13.798;2024-02-26T04:04:48;147.93;;;22.83;;
69719;SDS011;56988;56.122;13.798;2024-02-26T04:05:48;171.82;;;24.08;;
69719;SDS011;56988;56.122;13.798;2024-02-26T04:06:49;128.40;;;21.97;;
69719;SDS011;56988;56.122;13.798;2024-02-26T04:07:49;134.00;;;22.23;;
69719;SDS011;56988;56.122;13.798;2024-02-26T04:08:49;86.17;;;21.37;;
69719;SDS011;56988;56.122;13.798;2024-02-26T04:09:49;147.03;;;21.90;;
69719;SDS011;56988;56.122;13.798;2024-02-26T04:10:49;151.82;;;23.40;;
69719;SDS011;56988;56.122;13.798;2024-02-26T04:11:50;215.00;;;25.93;;
69719;SDS011;56988;56.122;13.798;2024-02-26T04:12:50;92.47;;;20.50;;
69719;SDS011;56988;56.122;13.798;2024-02-26T04:13:50;65.25;;;19.85;;
69719;SDS011;56988;56.122;13.798;2024-02-26T04:14:52;189.68;;;24.67;;
69719;SDS011;56988;56.122;13.798;2024-02-26T04:15:52;184.95;;;24.15;;
69719;SDS011;56988;56.122;13.798;2024-02-26T04:16:52;223.47;;;27.23;;
69719;SDS011;56988;56.122;13.798;2024-02-26T04:17:54;215.30;;;24.92;;
69719;SDS011;56988;56.122;13.798;2024-02-26T04:18:54;114.87;;;21.10;;
69719;SDS011;56988;56.122;13.798;2024-02-26T04:19:54;118.80;;;21.23;;
69719;SDS011;56988;56.122;13.798;2024-02-26T04:20:55;110.87;;;20.80;;
69719;SDS011;56988;56.122;13.798;2024-02-26T04:21:55;85.60;;;20.30;;
69719;SDS011;56988;56.122;13.798;2024-02-26T04:22:55;106.72;;;21.25;;
69719;SDS011;56988;56.122;13.798;2024-02-26T04:23:55;77.45;;;19.10;;
69719;SDS011;56988;56.122;13.798;2024-02-26T04:24:56;111.25;;;20.85;;
69719;SDS011;56988;56.122;13.798;2024-02-26T04:25:56;114.83;;;22.40;;
69719;SDS011;56988;56.122;13.798;2024-02-26T04:26:56;178.88;;;24.98;;
69719;SDS011;56988;56.122;13.798;2024-02-26T04:27:56;88.30;;;19.70;;
69719;SDS011;56988;56.122;13.798;2024-02-26T04:28:56;105.43;;;21.27;;
69719;SDS011;56988;56.122;13.798;2024-02-26T04:29:57;179.43;;;24.30;;
69719;SDS011;56988;56.122;13.798;2024-02-26T04:30:57;142.02;;;22.95;;
69719;SDS011;56988;56.122;13.798;2024-02-26T04:31:57;209.27;;;25.80;;
69719;SDS011;56988;56.122;13.798;2024-02-26T04:32:57;69.97;;;19.83;;
69719;SDS011;56988;56.122;13.798;2024-02-26T04:33:58;133.47;;;21.37;;
69719;SDS011;56988;56.122;13.798;2024-02-26T04:34:58;93.72;;;19.90;;
69719;SDS011;56988;56.122;13.798;2024-02-26T04:35:58;77.40;;;20.80;;
69719;SDS011;56988;56.122;13.798;2024-02-26T04:36:58;121.67;;;21.27;;
69719;SDS011;56988;56.122;13.798;2024-02-26T04:37:58;143.18;;;22.73;;
69719;SDS011;56988;56.122;13.798;2024-02-26T04:38:59;137.63;;;21.80;;
69719;SDS011;56988;56.122;13.798;2024-02-26T04:39:59;85.30;;;20.10;;
69719;SDS011;56988;56.122;13.798;2024-02-26T04:41:00;125.03;;;20.73;;
69719;SDS011;56988;56.122;13.798;2024-02-26T04:42:00;143.57;;;20.80;;
69719;SDS011;56988;56.122;13.798;2024-02-26T04:43:03;109.60;;;19.65;;
69719;SDS011;56988;56.122;13.798;2024-02-26T04:44:04;217.30;;;25.73;;
69719;SDS011;56988;56.122;13.798;2024-02-26T04:45:04;77.30;;;19.37;;
69719;SDS011;56988;56.122;13.798;2024-02-26T04:46:04;188.20;;;22.83;;
69719;SDS011;56988;56.122;13.798;2024-02-26T04:47:04;142.70;;;21.87;;
69719;SDS011;56988;56.122;13.798;2024-02-26T04:48:05;116.72;;;20.25;;
69719;SDS011;56988;56.122;13.798;2024-02-26T04:49:05;137.02;;;21.08;;
69719;SDS011;56988;56.122;13.798;2024-02-26T04:50:06;111.60;;;20.30;;
69719;SDS011;56988;56.122;13.798;2024-02-26T04:51:06;130.15;;;21.50;;
69719;SDS011;56988;56.122;13.798;2024-02-26T04:52:06;136.80;;;21.58;;
69719;SDS011;56988;56.122;13.798;2024-02-26T04:53:06;180.80;;;24.13;;
69719;SDS011;56988;56.122;13.798;2024-02-26T04:54:06;87.80;;;20.27;;
69719;SDS011;56988;56.122;13.798;2024-02-26T04:55:07;98.67;;;20.13;;
69719;SDS011;56988;56.122;13.798;2024-02-26T04:56:07;198.63;;;25.65;;
69719;SDS011;56988;56.122;13.798;2024-02-26T04:57:07;115.00;;;21.77;;
69719;SDS011;56988;56.122;13.798;2024-02-26T04:58:07;167.82;;;22.90;;
69719;SDS011;56988;56.122;13.798;2024-02-26T04:59:08;131.32;;;21.02;;
69719;SDS011;56988;56.122;13.798;2024-02-26T05:00:08;106.57;;;20.27;;
69719;SDS011;56988;56.122;13.798;2024-02-26T05:01:09;78.07;;;21.27;;
69719;SDS011;56988;56.122;13.798;2024-02-26T05:02:10;85.32;;;21.40;;
69719;SDS011;56988;56.122;13.798;2024-02-26T05:03:11;110.65;;;22.40;;
69719;SDS011;56988;56.122;13.798;2024-02-26T05:04:15;99.60;;;21.38;;
69719;SDS011;56988;56.122;13.798;2024-02-26T05:05:15;79.57;;;22.97;;
69719;SDS011;56988;56.122;13.798;2024-02-26T05:06:16;133.75;;;23.77;;
69719;SDS011;56988;56.122;13.798;2024-02-26T05:07:16;116.53;;;22.55;;
69719;SDS011;56988;56.122;13.798;2024-02-26T05:08:19;157.23;;;24.70;;
69719;SDS011;56988;56.122;13.798;2024-02-26T05:09:19;132.80;;;22.93;;
69719;SDS011;56988;56.122;13.798;2024-02-26T05:10:20;110.60;;;20.88;;
69719;SDS011;56988;56.122;13.798;2024-02-26T05:11:20;93.10;;;22.87;;
69719;SDS011;56988;56.122;13.798;2024-02-26T05:12:20;142.47;;;22.43;;
69719;SDS011;56988;56.122;13.798;2024-02-26T05:13:20;61.13;;;18.57;;
69719;SDS011;56988;56.122;13.798;2024-02-26T05:14:20;118.13;;;20.67;;
69719;SDS011;56988;56.122;13.798;2024-02-26T05:15:21;93.32;;;18.85;;
69719;SDS011;56988;56.122;13.798;2024-02-26T05:16:21;90.32;;;19.58;;
69719;SDS011;56988;56.122;13.798;2024-02-26T05:17:24;60.95;;;19.38;;
69719;SDS011;56988;56.122;13.798;2024-02-26T05:18:24;78.80;;;19.87;;
69719;SDS011;56988;56.122;13.798;2024-02-26T05:19:25;79.95;;;19.38;;
69719;SDS011;56988;56.122;13.798;2024-02-26T05:20:25;70.90;;;19.50;;
69719;SDS011;56988;56.122;13.798;2024-02-26T05:21:25;69.35;;;19.77;;
69719;SDS011;56988;56.122;13.798;2024-02-26T05:22:25;78.72;;;18.98;;
69719;SDS011;56988;56.122;13.798;2024-02-26T05:23:26;94.40;;;19.13;;
69719;SDS011;56988;56.122;13.798;2024-02-26T05:24:26;65.80;;;19.65;;
69719;SDS011;56988;56.122;13.798;2024-02-26T05:25:26;53.95;;;18.67;;
69719;SDS011;56988;56.122;13.798;2024-02-26T05:26:27;92.17;;;21.07;;
69719;SDS011;56988;56.122;13.798;2024-02-26T05:27:27;51.93;;;18.13;;
69719;SDS011;56988;56.122;13.798;2024-02-26T05:28:27;60.53;;;18.60;;
69719;SDS011;56988;56.122;13.798;2024-02-26T05:29:27;69.23;;;17.53;;
69719;SDS011;56988;56.122;13.798;2024-02-26T05:30:27;61.00;;;18.88;;
69719;SDS011;56988;56.122;13.798;2024-02-26T05:31:28;49.22;;;16.75;;
69719;SDS011;56988;56.122;13.798;2024-02-26T05:32:28;62.95;;;18.02;;
69719;SDS011;56988;56.122;13.798;2024-02-26T05:33:29;74.67;;;18.23;;
69719;SDS011;56988;56.122;13.798;2024-02-26T05:34:29;58.77;;;18.07;;
69719;SDS011;56988;56.122;13.798;2024-02-26T05:36:30;45.17;;;16.50;;
69719;SDS011;56988;56.122;13.798;2024-02-26T05:37:33;49.45;;;17.52;;
69719;SDS011;56988;56.122;13.798;2024-02-26T05:38:33;55.00;;;17.63;;
69719;SDS011;56988;56.122;13.798;2024-02-26T05:39:33;43.33;;;18.50;;
69719;SDS011;56988;56.122;13.798;2024-02-26T05:40:33;50.37;;;17.27;;
69719;SDS011;56988;56.122;13.798;2024-02-26T05:41:34;71.95;;;18.27;;
69719;SDS011;56988;56.122;13.798;2024-02-26T05:42:34;96.77;;;20.33;;
69719;SDS011;56988;56.122;13.798;2024-02-26T05:43:34;56.20;;;17.52;;
69719;SDS011;56988;56.122;13.798;2024-02-26T05:44:34;39.58;;;17.25;;
69719;SDS011;56988;56.122;13.798;2024-02-26T05:45:35;144.85;;;21.60;;
69719;SDS011;56988;56.122;13.798;2024-02-26T05:46:35;79.60;;;18.77;;
69719;SDS011;56988;56.122;13.798;2024-02-26T05:47:35;342.63;;;28.65;;
69719;SDS011;56988;56.122;13.798;2024-02-26T05:48:35;116.05;;;20.75;;
69719;SDS011;56988;56.122;13.798;2024-02-26T05:49:36;193.20;;;22.57;;